Time;durP1;ratioP1;P1;durP2;ratioP2;P2;SDS_P1;SDS_P2;PMS_P1;PMS_P2;Temp;Humidity;BMP_temperature;BMP_pressure;BME280_temperature;BME280_humidity;BME280_pressure;Samples;Min_cycle;Max_cycle;Signal;HPM_P1;HPM_P2
2022/03/31 00:00:20;;;;;;;;;;;;;;;-144.19;100.00;76703.22;4959931;28;19926;-83
2022/03/31 00:02:46;;;;;;;;;;;;;;;-144.19;100.00;76724.88;5002492;28;19932;-83
2022/03/31 00:05:13;;;;;;;;;;;;;;;-144.19;100.00;76709.13;5000443;28;19930;-83
2022/03/31 00:07:46;;;;;;;;;;;;;;;-144.19;100.00;76715.03;5000130;28;20230;-82
2022/03/31 00:10:13;;;;;;;;;;;;;;;-144.19;100.00;76722.91;4996515;28;19940;-82
2022/03/31 00:12:39;;;;;;;;;;;;;;;-144.19;100.00;76713.06;4999180;28;19940;-83
2022/03/31 00:15:05;;;;;;;;;;;;;;;-144.19;100.00;76730.78;5000730;28;19932;-84
2022/03/31 00:17:32;;;;;;;;;;;;;;;-144.19;100.00;76720.94;4998512;28;19926;-81
2022/03/31 00:19:58;;;;;;;;;;;;;;;-144.19;100.00;76724.88;4981468;28;20278;-82
2022/03/31 00:22:31;;;;;;;;;;;;;;;-144.19;100.00;76724.88;4978930;28;19926;-81
2022/03/31 00:24:57;;;;;;;;;;;;;;;-144.19;100.00;76717.00;4979445;28;19926;-85
2022/03/31 00:27:23;;;;;;;;;;;;;;;-144.19;100.00;76697.31;4978316;28;19930;-83
2022/03/31 00:29:50;;;;;;;;;;;;;;;-144.19;100.00;76703.22;4994662;28;19932;-83
2022/03/31 00:32:16;;;;;;;;;;;;;;;-144.19;100.00;76720.94;4998415;28;20385;-81
2022/03/31 00:34:42;;;;;;;;;;;;;;;-144.19;100.00;76713.06;5007301;28;19933;-81
2022/03/31 00:37:11;;;;;;;;;;;;;;;-144.19;100.00;76713.06;5018211;28;19926;-82
2022/03/31 00:39:37;;;;;;;;;;;;;;;-144.19;100.00;76720.94;4987593;28;19930;-82
2022/03/31 00:42:05;;;;;;;;;;;;;;;-144.19;100.00;76724.88;4978284;28;19938;-82
2022/03/31 00:44:31;;;;;;;;;;;;;;;-144.19;100.00;76724.88;4978339;28;19926;-83
2022/03/31 00:46:58;;;;;;;;;;;;;;;-144.19;100.00;76717.00;4978803;28;19965;-84
2022/03/31 00:49:25;;;;;;;;;;;;;;;-144.19;100.00;76717.00;4992009;28;20336;-82
2022/03/31 00:51:52;;;;;;;;;;;;;;;-144.19;100.00;76728.81;4997871;28;20404;-81
2022/03/31 00:54:20;;;;;;;;;;;;;;;-144.19;100.00;76715.03;4996499;28;20220;-81
2022/03/31 00:56:49;;;;;;;;;;;;;;;-144.19;100.00;76715.03;4999155;28;20418;-82
2022/03/31 00:59:18;;;;;;;;;;;;;;;-144.19;100.00;76722.91;4982542;28;19926;-81
2022/03/31 01:01:45;;;;;;;;;;;;;;;-144.19;100.00;76717.00;4977564;28;20008;-82
2022/03/31 01:04:12;;;;;;;;;;;;;;;-144.19;100.00;76711.09;4976064;28;20017;-81
2022/03/31 01:06:39;;;;;;;;;;;;;;;-144.19;100.00;76711.09;4977010;28;19994;-82
2022/03/31 01:09:05;;;;;;;;;;;;;;;-144.19;100.00;76705.19;4978454;28;19926;-81
2022/03/31 01:11:32;;;;;;;;;;;;;;;-144.19;100.00;76717.00;4977212;28;20053;-82
2022/03/31 01:13:58;;;;;;;;;;;;;;;-144.19;100.00;76720.94;4975040;28;19926;-82
2022/03/31 01:19:30;;;;;;;;;;;;;;;-144.19;100.00;76715.03;5033449;28;19972;-91
2022/03/31 01:21:56;;;;;;;;;;;;;;;-144.19;100.00;76717.00;5032240;28;19925;-92
2022/03/31 01:24:23;;;;;;;;;;;;;;;-144.19;100.00;76703.22;5032317;28;19963;-91
2022/03/31 01:26:54;;;;;;;;;;;;;;;-144.19;100.00;76709.13;5031996;28;19952;-92
2022/03/31 01:29:23;;;;;;;;;;;;;;;-144.19;100.00;76713.06;5032302;28;19925;-92
2022/03/31 01:31:50;;;;;;;;;;;;;;;-144.19;100.00;76720.94;5049220;28;19929;-92
2022/03/31 01:34:16;;;;;;;;;;;;;;;-144.19;100.00;76718.97;5035337;28;20413;-91
2022/03/31 01:36:43;;;;;;;;;;;;;;;-144.19;100.00;76717.00;5035619;28;19971;-91
2022/03/31 01:39:09;;;;;;;;;;;;;;;-144.19;100.00;76718.97;5035526;28;19924;-91
2022/03/31 01:41:35;;;;;;;;;;;;;;;-144.19;100.00;76717.00;5035538;28;19929;-92
2022/03/31 01:44:03;;;;;;;;;;;;;;;-144.19;100.00;76709.13;5035567;28;20011;-92
2022/03/31 01:46:29;;;;;;;;;;;;;;;-144.19;100.00;76717.00;5035216;28;19925;-92
2022/03/31 01:48:56;;;;;;;;;;;;;;;-144.19;100.00;76713.06;5035706;28;19924;-91
2022/03/31 01:51:22;;;;;;;;;;;;;;;-144.19;100.00;76720.94;5039652;28;19931;-92
2022/03/31 01:53:48;;;;;;;;;;;;;;;-144.19;100.00;76720.94;5032017;28;20012;-91
2022/03/31 01:56:15;;;;;;;;;;;;;;;-144.19;100.00;76713.06;5031787;28;19925;-91
2022/03/31 01:58:41;;;;;;;;;;;;;;;-144.19;100.00;76705.19;5018765;28;20008;-91
2022/03/31 02:01:08;;;;;;;;;;;;;;;-144.19;100.00;76707.16;5012182;28;19988;-92
2022/03/31 02:03:34;;;;;;;;;;;;;;;-144.19;100.00;76705.19;5012144;28;19979;-92
2022/03/31 02:06:01;;;;;;;;;;;;;;;-144.19;100.00;76711.09;5011992;28;19956;-91
2022/03/31 02:08:27;;;;;;;;;;;;;;;-144.19;100.00;76705.19;5013280;28;20444;-91
2022/03/31 02:10:54;;;;;;;;;;;;;;;-144.19;100.00;76707.16;5011641;28;19925;-92
2022/03/31 02:13:20;;;;;;;;;;;;;;;-144.19;100.00;76715.03;5012909;28;19932;-91
2022/03/31 02:15:49;;;;;;;;;;;;;;;-144.19;100.00;76713.06;5011649;28;19932;-92
2022/03/31 02:18:16;;;;;;;;;;;;;;;-144.19;100.00;76705.19;5010934;28;20048;-92
2022/03/31 02:20:45;;;;;;;;;;;;;;;-144.19;100.00;76709.13;5011741;28;19929;-91
2022/03/31 02:23:11;;;;;;;;;;;;;;;-144.19;100.00;76689.44;5011758;28;19961;-92
2022/03/31 02:25:40;;;;;;;;;;;;;;;-144.19;100.00;76695.34;5011759;28;20020;-91
2022/03/31 02:28:12;;;;;;;;;;;;;;;-144.19;100.00;76697.31;5011819;28;19925;-90
2022/03/31 02:30:46;;;;;;;;;;;;;;;-144.19;100.00;76685.53;5025480;28;19976;-92
2022/03/31 02:33:21;;;;;;;;;;;;;;;-144.19;100.00;76683.53;5034336;28;19928;-92
2022/03/31 02:35:50;;;;;;;;;;;;;;;-144.19;100.00;76677.66;5034702;28;19924;-92
2022/03/31 02:38:25;;;;;;;;;;;;;;;-144.19;100.00;76681.56;5035892;28;19925;-92
2022/03/31 02:40:58;;;;;;;;;;;;;;;-144.19;100.00;76677.66;5035431;28;19929;-92
2022/03/31 02:43:26;;;;;;;;;;;;;;;-144.19;100.00;76673.72;5034364;28;19944;-92
2022/03/31 02:45:53;;;;;;;;;;;;;;;-144.19;100.00;76665.84;5034693;28;20368;-92
2022/03/31 02:48:21;;;;;;;;;;;;;;;-144.19;100.00;76659.94;5034335;28;19924;-91
2022/03/31 02:50:47;;;;;;;;;;;;;;;-144.19;100.00;76665.84;5034144;28;19995;-92
2022/03/31 02:56:02;;;;;;;;;;;;;;;-144.19;100.00;76659.94;5052068;28;19928;-92
2022/03/31 02:58:31;;;;;;;;;;;;;;;-144.19;100.00;76656.00;5022103;28;19925;-91
2022/03/31 03:00:58;;;;;;;;;;;;;;;-144.19;100.00;76654.03;5014671;28;20334;-92
2022/03/31 03:03:25;;;;;;;;;;;;;;;-144.19;100.00;76650.09;5031715;28;20264;-92
2022/03/31 03:05:52;;;;;;;;;;;;;;;-144.19;100.00;76654.03;5032109;28;19925;-92
2022/03/31 03:08:19;;;;;;;;;;;;;;;-144.19;100.00;76646.16;5014648;28;20350;-92
2022/03/31 03:10:45;;;;;;;;;;;;;;;-144.19;100.00;76650.09;5014306;28;20058;-92
2022/03/31 03:13:14;;;;;;;;;;;;;;;-144.19;100.00;76661.91;5014302;28;19931;-92
2022/03/31 03:15:44;;;;;;;;;;;;;;;-144.19;100.00;76669.78;5015363;28;19925;-91
2022/03/31 03:18:11;;;;;;;;;;;;;;;-144.19;100.00;76681.56;5014745;28;19987;-91
2022/03/31 03:20:37;;;;;;;;;;;;;;;-144.19;100.00;76669.78;5015069;28;20371;-91
2022/03/31 03:23:04;;;;;;;;;;;;;;;-144.19;100.00;76669.78;5014069;28;20023;-91
2022/03/31 03:25:34;;;;;;;;;;;;;;;-144.19;100.00;76661.91;5014236;28;19925;-91
2022/03/31 03:28:00;;;;;;;;;;;;;;;-144.19;100.00;76669.78;5014338;28;20379;-91
2022/03/31 03:30:27;;;;;;;;;;;;;;;-144.19;100.00;76671.75;5018479;28;19933;-91
2022/03/31 03:32:53;;;;;;;;;;;;;;;-144.19;100.00;76669.78;5037770;28;19964;-92
2022/03/31 03:35:37;;;;;;;;;;;;;;;-144.19;100.00;76669.78;5054422;28;19925;-92
2022/03/31 03:38:09;;;;;;;;;;;;;;;-144.19;100.00;76669.78;5040682;28;19925;-90
2022/03/31 03:40:37;;;;;;;;;;;;;;;-144.19;100.00;76669.78;5035908;28;20383;-90
2022/03/31 03:43:07;;;;;;;;;;;;;;;-144.19;100.00;76665.84;5035942;28;19964;-90
2022/03/31 03:45:34;;;;;;;;;;;;;;;-144.19;100.00;76657.97;5036397;28;20012;-90
2022/03/31 03:48:03;;;;;;;;;;;;;;;-144.19;100.00;76659.94;5037369;28;19925;-90
2022/03/31 03:50:32;;;;;;;;;;;;;;;-144.19;100.00;76648.13;5037307;28;19928;-91
2022/03/31 03:53:03;;;;;;;;;;;;;;;-144.19;100.00;76654.03;5036379;28;19926;-91
2022/03/31 03:55:30;;;;;;;;;;;;;;;-144.19;100.00;76646.16;5035761;28;19929;-90
2022/03/31 03:57:57;;;;;;;;;;;;;;;-144.19;100.00;76638.28;5028055;28;19925;-91
2022/03/31 04:00:29;;;;;;;;;;;;;;;-144.19;100.00;76638.28;5015915;28;19929;-90
2022/03/31 04:02:56;;;;;;;;;;;;;;;-144.19;100.00;76640.25;5015845;28;19987;-90
2022/03/31 04:05:22;;;;;;;;;;;;;;;-144.19;100.00;76642.22;5036232;28;19929;-90
2022/03/31 04:07:51;;;;;;;;;;;;;;;-144.19;100.00;76646.16;5019477;28;19929;-90
2022/03/31 04:10:18;;;;;;;;;;;;;;;-144.19;100.00;76634.34;5019393;28;19933;-91
2022/03/31 04:12:44;;;;;;;;;;;;;;;-144.19;100.00;76634.34;5019247;28;19925;-90
2022/03/31 04:15:13;;;;;;;;;;;;;;;-144.19;100.00;76642.22;5036154;28;19944;-90
2022/03/31 04:17:42;;;;;;;;;;;;;;;-144.19;100.00;76638.28;5019137;28;19925;-89
2022/03/31 04:20:08;;;;;;;;;;;;;;;-144.19;100.00;76638.28;4998706;28;20296;-90
2022/03/31 04:22:38;;;;;;;;;;;;;;;-144.19;100.00;76646.16;4998723;28;19975;-91
2022/03/31 04:25:08;;;;;;;;;;;;;;;-144.19;100.00;76632.38;4998026;28;20453;-90
2022/03/31 04:27:35;;;;;;;;;;;;;;;-144.19;100.00;76646.16;4998464;28;19929;-91
2022/03/31 04:30:06;;;;;;;;;;;;;;;-144.19;100.00;76636.31;4998024;28;19932;-90
2022/03/31 04:32:32;;;;;;;;;;;;;;;-144.19;100.00;76636.31;5004426;28;19925;-90
2022/03/31 04:35:00;;;;;;;;;;;;;;;-144.19;100.00;76638.28;5017416;28;19929;-90
2022/03/31 04:37:26;;;;;;;;;;;;;;;-144.19;100.00;76642.22;5017021;28;19925;-90
2022/03/31 04:39:53;;;;;;;;;;;;;;;-144.19;100.00;76646.16;5018716;28;20028;-91
2022/03/31 04:42:20;;;;;;;;;;;;;;;-144.19;100.00;76659.94;5015918;28;20388;-90
2022/03/31 04:44:47;;;;;;;;;;;;;;;-144.19;100.00;76657.97;5033726;28;19925;-91
2022/03/31 04:47:13;;;;;;;;;;;;;;;-144.19;100.00;76663.88;5034237;28;19926;-91
2022/03/31 04:49:47;;;;;;;;;;;;;;;-144.19;100.00;76665.84;5034049;28;20009;-91
2022/03/31 04:52:28;;;;;;;;;;;;;;;-144.19;100.00;76667.81;5033361;28;20277;-90
2022/03/31 04:54:55;;;;;;;;;;;;;;;-144.19;100.00;76663.88;5034555;28;19929;-91
2022/03/31 05:00:12;;;;;;;;;;;;;;;-144.19;100.00;76650.09;5018133;28;19925;-90
2022/03/31 05:03:01;;;;;;;;;;;;;;;-144.19;100.00;76673.72;5015178;28;19980;-91
2022/03/31 05:06:02;;;;;;;;;;;;;;;-144.19;100.00;76671.75;5016984;28;19999;-91
2022/03/31 05:08:50;;;;;;;;;;;;;;;-144.19;100.00;76661.91;5018203;28;19936;-91
2022/03/31 05:11:17;;;;;;;;;;;;;;;-144.19;100.00;76665.84;5015930;28;19955;-91
2022/03/31 05:13:44;;;;;;;;;;;;;;;-144.19;100.00;76665.84;5017565;28;20354;-92
2022/03/31 05:16:10;;;;;;;;;;;;;;;-144.19;100.00;76671.75;5020823;28;19929;-90
2022/03/31 05:18:37;;;;;;;;;;;;;;;-144.19;100.00;76665.84;5020347;28;19932;-92
2022/03/31 05:21:04;;;;;;;;;;;;;;;-144.19;100.00;76657.97;5022065;28;19953;-92
2022/03/31 05:23:40;;;;;;;;;;;;;;;-144.19;100.00;76665.84;5020768;28;19929;-92
2022/03/31 05:26:07;;;;;;;;;;;;;;;-144.19;100.00;76669.78;5027113;28;20020;-94
2022/03/31 05:28:49;;;;;;;;;;;;;;;-144.19;100.00;76669.78;5021333;28;19925;-93
2022/03/31 05:31:32;;;;;;;;;;;;;;;-144.19;100.00;76663.88;5006727;28;20407;-93
2022/03/31 05:34:05;;;;;;;;;;;;;;;-144.19;100.00;76654.03;5021953;28;19926;-93
2022/03/31 05:36:38;;;;;;;;;;;;;;;-144.19;100.00;76661.91;5020670;28;20348;-93
2022/03/31 05:39:09;;;;;;;;;;;;;;;-144.19;100.00;76665.84;5017320;28;20351;-93
2022/03/31 05:41:36;;;;;;;;;;;;;;;-144.19;100.00;76663.88;5018168;28;19926;-93
2022/03/31 05:44:02;;;;;;;;;;;;;;;-144.19;100.00;76663.88;5018726;28;20400;-93
2022/03/31 05:46:29;;;;;;;;;;;;;;;-144.19;100.00;76659.94;5019086;28;19925;-93
2022/03/31 05:48:56;;;;;;;;;;;;;;;-144.19;100.00;76667.81;5019767;28;19925;-93
2022/03/31 05:51:22;;;;;;;;;;;;;;;-144.19;100.00;76671.75;5015439;28;20402;-93
2022/03/31 05:53:49;;;;;;;;;;;;;;;-144.19;100.00;76679.59;5016572;28;19993;-93
2022/03/31 05:56:15;;;;;;;;;;;;;;;-144.19;100.00;76665.84;5022986;28;20379;-93
2022/03/31 05:58:49;;;;;;;;;;;;;;;-144.19;100.00;76657.97;5039725;28;19972;-93
2022/03/31 06:01:16;;;;;;;;;;;;;;;-144.19;100.00;76652.06;5022634;28;19971;-92
2022/03/31 06:03:46;;;;;;;;;;;;;;;-144.19;100.00;76667.81;5020910;28;19993;-93
2022/03/31 06:06:13;;;;;;;;;;;;;;;-144.19;100.00;76665.84;5022506;28;19948;-93
2022/03/31 06:08:39;;;;;;;;;;;;;;;-144.19;100.00;76663.88;5022203;28;19957;-93
2022/03/31 06:11:05;;;;;;;;;;;;;;;-144.19;100.00;76661.91;5023565;28;20054;-94
2022/03/31 06:13:32;;;;;;;;;;;;;;;-144.19;100.00;76656.00;5021753;28;19925;-94
2022/03/31 06:15:58;;;;;;;;;;;;;;;-144.19;100.00;76659.94;5023034;28;20455;-94
2022/03/31 06:18:25;;;;;;;;;;;;;;;-144.19;100.00;76654.03;5024029;28;19932;-93
2022/03/31 06:20:51;;;;;;;;;;;;;;;-144.19;100.00;76654.03;5024683;28;19947;-95
2022/03/31 06:23:18;;;;;;;;;;;;;;;-144.19;100.00;76654.03;5022170;28;19947;-93
2022/03/31 06:25:45;;;;;;;;;;;;;;;-144.19;100.00;76661.91;5022528;28;19968;-94
2022/03/31 06:28:12;;;;;;;;;;;;;;;-144.19;100.00;76652.06;5022646;28;19929;-93
2022/03/31 06:30:39;;;;;;;;;;;;;;;-144.19;100.00;76650.09;5020723;28;20028;-93
2022/03/31 06:33:05;;;;;;;;;;;;;;;-144.19;100.00;76646.16;5021457;28;20291;-94
2022/03/31 06:35:32;;;;;;;;;;;;;;;-144.19;100.00;76634.34;5021133;28;19925;-93
2022/03/31 06:37:59;;;;;;;;;;;;;;;-144.19;100.00;76640.25;5020659;28;19931;-94
2022/03/31 06:40:27;;;;;;;;;;;;;;;-144.19;100.00;76646.16;5020911;28;20019;-94
2022/03/31 06:42:53;;;;;;;;;;;;;;;-144.19;100.00;76636.31;5021298;28;19925;-95
2022/03/31 06:45:21;;;;;;;;;;;;;;;-144.19;100.00;76638.28;5020746;28;20360;-94
2022/03/31 06:47:55;;;;;;;;;;;;;;;-144.19;100.00;76642.22;5021567;28;19964;-95
2022/03/31 06:50:26;;;;;;;;;;;;;;;-144.19;100.00;76630.41;5022235;28;19925;-94
2022/03/31 06:52:56;;;;;;;;;;;;;;;-144.19;100.00;76632.38;5021382;28;19925;-94
2022/03/31 06:55:23;;;;;;;;;;;;;;;-144.19;100.00;76638.28;5022832;28;19976;-94
2022/03/31 06:57:49;;;;;;;;;;;;;;;-144.19;100.00;76638.28;5022663;28;20050;-93
2022/03/31 07:00:16;;;;;;;;;;;;;;;-144.19;100.00;76646.16;5023106;28;19925;-93
2022/03/31 07:02:42;;;;;;;;;;;;;;;-144.19;100.00;76642.22;5023599;28;19949;-94
2022/03/31 07:05:09;;;;;;;;;;;;;;;-144.19;100.00;76638.28;5027761;28;19933;-94
2022/03/31 07:07:40;;;;;;;;;;;;;;;-144.19;100.00;76634.34;5030336;28;19929;-94
2022/03/31 07:10:07;;;;;;;;;;;;;;;-144.19;100.00;76634.34;5032684;28;19960;-94
2022/03/31 07:12:39;;;;;;;;;;;;;;;-144.19;100.00;76632.38;5015155;28;22063;-93
2022/03/31 07:15:07;;;;;;;;;;;;;;;-144.19;100.00;76630.41;5032153;28;19925;-93
2022/03/31 07:17:33;;;;;;;;;;;;;;;-144.19;100.00;76630.41;5032117;28;19935;-94
2022/03/31 07:20:00;;;;;;;;;;;;;;;-144.19;100.00;76612.69;5032594;28;19932;-93
2022/03/31 07:22:26;;;;;;;;;;;;;;;-144.19;100.00;76618.59;5031956;28;19932;-94
2022/03/31 07:24:53;;;;;;;;;;;;;;;-144.19;100.00;76610.72;5031405;28;19931;-93
2022/03/31 07:27:19;;;;;;;;;;;;;;;-144.19;100.00;76602.84;5031529;28;19944;-93
2022/03/31 07:29:46;;;;;;;;;;;;;;;-144.19;100.00;76598.91;5031743;28;19932;-93
2022/03/31 07:32:12;;;;;;;;;;;;;;;-144.19;100.00;76594.97;5029605;28;20028;-94
2022/03/31 07:34:39;;;;;;;;;;;;;;;-144.19;100.00;76591.03;5028325;28;19924;-93
2022/03/31 07:37:05;;;;;;;;;;;;;;;-144.19;100.00;76571.34;5027653;28;19956;-93
2022/03/31 07:39:34;;;;;;;;;;;;;;;-144.19;100.00;76571.34;5028555;28;19979;-93
2022/03/31 07:42:00;;;;;;;;;;;;;;;-144.19;100.00;76567.41;5027567;28;19955;-94
2022/03/31 07:44:27;;;;;;;;;;;;;;;-144.19;100.00;76531.97;5026449;28;19925;-93
2022/03/31 07:46:54;;;;;;;;;;;;;;;-144.19;100.00;76528.03;5027324;28;19953;-93
2022/03/31 07:49:21;;;;;;;;;;;;;;;-144.19;100.00;76524.09;5026181;28;19925;-93
2022/03/31 07:51:47;;;;;;;;;;;;;;;-144.19;100.00;76512.28;5025130;28;20470;-93
2022/03/31 07:54:14;;;;;;;;;;;;;;;-144.19;100.00;76516.22;5024946;28;19925;-92
2022/03/31 07:56:40;;;;;;;;;;;;;;;-144.19;100.00;76539.84;5026014;28;19952;-93
2022/03/31 07:59:08;;;;;;;;;;;;;;;-144.19;100.00;76535.91;5023791;28;19929;-95
2022/03/31 08:01:34;;;;;;;;;;;;;;;-144.19;100.00;76520.16;5025703;28;19925;-94
2022/03/31 08:04:02;;;;;;;;;;;;;;;-144.19;100.00;76504.41;5027072;28;19925;-94
2022/03/31 08:06:28;;;;;;;;;;;;;;;-144.19;100.00;76530.00;5025633;28;20311;-93
2022/03/31 08:08:55;;;;;;;;;;;;;;;-144.19;100.00;76516.22;5026882;28;19960;-92
2022/03/31 08:11:25;;;;;;;;;;;;;;;-144.19;100.00;76496.53;5024695;28;19957;-94
2022/03/31 08:13:51;;;;;;;;;;;;;;;-144.19;100.00;76510.31;5026284;28;19925;-93
2022/03/31 08:16:18;;;;;;;;;;;;;;;-144.19;100.00;76516.22;5024316;28;19925;-92
2022/03/31 08:18:45;;;;;;;;;;;;;;;-144.19;100.00;76531.97;5024534;28;19931;-93
2022/03/31 08:21:11;;;;;;;;;;;;;;;-144.19;100.00;76535.91;5028208;28;19913;-92
2022/03/31 08:23:38;;;;;;;;;;;;;;;-144.19;100.00;76524.09;5031341;28;19976;-94
2022/03/31 08:26:04;;;;;;;;;;;;;;;-144.19;100.00;76516.22;5027753;28;19925;-93
2022/03/31 08:28:31;;;;;;;;;;;;;;;-144.19;100.00;76496.53;5030310;28;20224;-92
2022/03/31 08:30:58;;;;;;;;;;;;;;;-144.19;100.00;76480.81;5044690;28;19925;-95
2022/03/31 08:33:25;;;;;;;;;;;;;;;-144.19;100.00;76476.88;5026408;28;19993;-94
2022/03/31 08:35:51;;;;;;;;;;;;;;;-144.19;100.00;76488.69;5028753;28;19913;-93
2022/03/31 08:38:18;;;;;;;;;;;;;;;-144.19;100.00;76500.47;5026367;28;19953;-93
2022/03/31 08:40:47;;;;;;;;;;;;;;;-144.19;100.00;76476.88;5029076;28;19985;-94
2022/03/31 08:43:14;;;;;;;;;;;;;;;-144.19;100.00;76453.25;5026964;28;19991;-93
2022/03/31 08:45:41;;;;;;;;;;;;;;;-144.19;100.00;76449.31;5023334;28;19925;-93
2022/03/31 08:48:07;;;;;;;;;;;;;;;-144.19;100.00;76445.38;5026843;28;19932;-92
2022/03/31 08:50:35;;;;;;;;;;;;;;;-144.19;100.00;76429.63;5023362;28;19932;-93
2022/03/31 08:53:02;;;;;;;;;;;;;;;-144.19;100.00;76445.38;5022308;28;19972;-92
2022/03/31 08:55:29;;;;;;;;;;;;;;;-144.19;100.00;76449.31;5025171;28;20375;-93
2022/03/31 08:57:55;;;;;;;;;;;;;;;-144.19;100.00;76437.50;5021030;28;19925;-93
2022/03/31 09:00:23;;;;;;;;;;;;;;;-144.19;100.00;76437.50;5024240;28;19948;-93
2022/03/31 09:02:55;;;;;;;;;;;;;;;-144.19;100.00;76441.44;5020709;28;19929;-92
2022/03/31 09:05:22;;;;;;;;;;;;;;;-144.19;100.00;76455.22;5037478;28;19926;-92
2022/03/31 09:08:00;;;;;;;;;;;;;;;-144.19;100.00;76461.13;5025736;28;19987;-94
2022/03/31 09:10:26;;;;;;;;;;;;;;;-144.19;100.00;76461.13;5022981;28;19952;-92
2022/03/31 09:12:53;;;;;;;;;;;;;;;-144.19;100.00;76445.38;5038872;28;19925;-92
2022/03/31 09:15:29;;;;;;;;;;;;;;;-144.19;100.00;76445.38;5022921;28;19932;-93
2022/03/31 09:17:57;;;;;;;;;;;;;;;-144.19;100.00;76455.22;5022957;28;20369;-93
2022/03/31 09:20:23;;;;;;;;;;;;;;;-144.19;100.00;76437.50;5024249;28;19929;-93
2022/03/31 09:22:50;;;;;;;;;;;;;;;-144.19;100.00;76437.50;5022452;28;19996;-92
2022/03/31 09:25:23;;;;;;;;;;;;;;;-144.19;100.00;76437.50;5040357;28;19980;-93
2022/03/31 09:27:49;;;;;;;;;;;;;;;-144.19;100.00;76453.25;5024252;28;20391;-92
2022/03/31 09:30:17;;;;;;;;;;;;;;;-144.19;100.00;76447.34;5025667;28;19925;-93
2022/03/31 09:32:47;;;;;;;;;;;;;;;-144.19;100.00;76441.44;5022543;28;19935;-92
2022/03/31 09:35:18;;;;;;;;;;;;;;;-144.19;100.00;76455.22;5027128;28;19952;-93
2022/03/31 09:37:45;;;;;;;;;;;;;;;-144.19;100.00;76443.41;5053669;23;19947;-83
2022/03/31 09:40:11;;;;;;;;;;;;;;;-144.19;100.00;76429.63;5036021;28;19925;-81
2022/03/31 09:42:53;;;;;;;;;;;;;;;-144.19;100.00;76437.50;5042230;28;19978;-82
2022/03/31 09:45:20;;;;;;;;;;;;;;;-144.19;100.00;76417.81;5053234;28;20410;-80
2022/03/31 09:47:50;;;;;;;;;;;;;;;-144.19;100.00;76413.88;5037602;28;19925;-82
2022/03/31 09:50:17;;;;;;;;;;;;;;;-144.19;100.00;76415.84;5032275;28;19931;-82
2022/03/31 09:52:43;;;;;;;;;;;;;;;-144.19;100.00;76421.75;5014557;28;19925;-82
2022/03/31 09:55:10;;;;;;;;;;;;;;;-144.19;100.00;76411.91;5015575;28;19928;-81
2022/03/31 09:57:38;;;;;;;;;;;;;;;-144.19;100.00;76447.34;5037666;28;20315;-83
2022/03/31 10:00:06;;;;;;;;;;;;;;;-144.19;100.00;76445.38;5052855;28;20318;-80
2022/03/31 10:02:34;;;;;;;;;;;;;;;-144.19;100.00;76449.31;5052341;28;19938;-81
2022/03/31 10:05:01;;;;;;;;;;;;;;;-144.19;100.00;76455.22;5053192;28;19978;-82
2022/03/31 10:07:29;;;;;;;;;;;;;;;-144.19;100.00;76449.31;5052152;28;20362;-82
2022/03/31 10:09:55;;;;;;;;;;;;;;;-144.19;100.00;76433.56;5034500;28;19929;-82
2022/03/31 10:12:37;;;;;;;;;;;;;;;-144.19;100.00;76427.66;5051456;28;20380;-82
2022/03/31 10:15:14;;;;;;;;;;;;;;;-144.19;100.00;76427.66;5034800;28;19932;-83
2022/03/31 10:17:41;;;;;;;;;;;;;;;-144.19;100.00;76423.72;5053597;28;19925;-82
2022/03/31 10:20:12;;;;;;;;;;;;;;;-144.19;100.00;76419.78;5036363;28;20052;-84
2022/03/31 10:25:34;;;;;;;;;;;;;;;-144.19;100.00;76429.63;5054164;28;19929;-83
2022/03/31 10:28:07;;;;;;;;;;;;;;;-144.19;100.00;76409.94;5035872;28;19939;-82
2022/03/31 10:30:34;;;;;;;;;;;;;;;-144.19;100.00;76413.88;5033129;28;19929;-84
2022/03/31 10:33:02;;;;;;;;;;;;;;;-144.19;100.00;76394.19;5035295;28;19925;-84
2022/03/31 10:35:30;;;;;;;;;;;;;;;-144.19;100.00;76386.31;5032766;28;20399;-83
2022/03/31 10:37:57;;;;;;;;;;;;;;;-144.19;100.00;76384.34;5035707;28;19925;-84
2022/03/31 10:40:28;;;;;;;;;;;;;;;-144.19;100.00;76388.28;5045951;28;19939;-81
2022/03/31 10:42:55;;;;;;;;;;;;;;;-144.19;100.00;76384.34;5053043;28;20055;-81
2022/03/31 10:45:32;;;;;;;;;;;;;;;-144.19;100.00;76378.44;5035932;28;19924;-80
2022/03/31 10:47:58;;;;;;;;;;;;;;;-144.19;100.00;76376.47;5044356;28;19929;-82
2022/03/31 10:50:25;;;;;;;;;;;;;;;-144.19;100.00;76382.38;5049431;28;20079;-82
2022/03/31 10:52:59;;;;;;;;;;;;;;;-144.19;100.00;76386.31;5052635;28;19931;-81
2022/03/31 10:55:32;;;;;;;;;;;;;;;-144.19;100.00;76382.38;5035561;28;19955;-84
2022/03/31 10:57:59;;;;;;;;;;;;;;;-144.19;100.00;76388.28;5031855;28;19925;-83
2022/03/31 11:00:25;;;;;;;;;;;;;;;-144.19;100.00;76380.41;5039023;28;19929;-83
2022/03/31 11:02:54;;;;;;;;;;;;;;;-144.19;100.00;76372.53;5021447;28;19947;-82
2022/03/31 11:05:40;;;;;;;;;;;;;;;-144.19;100.00;76360.72;5034342;28;20306;-84
2022/03/31 11:08:07;;;;;;;;;;;;;;;-144.19;100.00;76364.66;5032684;28;20399;-83
2022/03/31 11:10:44;;;;;;;;;;;;;;;-144.19;100.00;76346.94;5032059;28;19931;-84
2022/03/31 11:13:11;;;;;;;;;;;;;;;-144.19;100.00;76339.09;5033258;28;20356;-84
2022/03/31 11:15:38;;;;;;;;;;;;;;;-144.19;100.00;76331.22;5032845;28;19925;-83
2022/03/31 11:18:05;;;;;;;;;;;;;;;-144.19;100.00;76343.03;5032697;28;20613;-81
2022/03/31 11:20:31;;;;;;;;;;;;;;;-144.19;100.00;76344.97;5038340;28;19929;-84
2022/03/31 11:23:00;;;;;;;;;;;;;;;-144.19;100.00;76335.16;5035422;28;19925;-83
2022/03/31 11:25:27;;;;;;;;;;;;;;;-144.19;100.00;76327.28;5054755;28;19928;-83
2022/03/31 11:27:53;;;;;;;;;;;;;;;-144.19;100.00;76321.38;5052643;28;19925;-83
2022/03/31 11:30:22;;;;;;;;;;;;;;;-144.19;100.00;76319.41;5053316;28;19931;-84
2022/03/31 11:32:51;;;;;;;;;;;;;;;-144.19;100.00;76327.28;5040734;28;19943;-84
2022/03/31 11:35:19;;;;;;;;;;;;;;;-144.19;100.00;76311.53;5045040;28;19931;-84
2022/03/31 11:37:46;;;;;;;;;;;;;;;-144.19;100.00;76307.59;5034784;28;20016;-81
2022/03/31 11:40:18;;;;;;;;;;;;;;;-144.19;100.00;76301.69;5052391;28;19951;-82
2022/03/31 11:42:45;;;;;;;;;;;;;;;-144.19;100.00;76299.72;5051671;28;19932;-84
2022/03/31 11:45:22;;;;;;;;;;;;;;;-144.19;100.00;76313.50;5052880;28;19925;-81
2022/03/31 11:48:14;;;;;;;;;;;;;;;-144.19;100.00;76319.41;5052673;28;19979;-81
2022/03/31 11:51:10;;;;;;;;;;;;;;;-144.19;100.00;76339.09;5048379;28;20342;-82
2022/03/31 11:53:44;;;;;;;;;;;;;;;-144.19;100.00;76331.22;5033616;28;20371;-83
2022/03/31 11:56:15;;;;;;;;;;;;;;;-144.19;100.00;76331.22;5039287;28;19924;-83
2022/03/31 11:58:43;;;;;;;;;;;;;;;-144.19;100.00;76319.41;5037743;28;20019;-81
2022/03/31 12:01:10;;;;;;;;;;;;;;;-144.19;100.00;76319.41;5051657;28;19932;-82
2022/03/31 12:03:37;;;;;;;;;;;;;;;-144.19;100.00;76319.41;5018824;28;20291;-82
2022/03/31 12:06:04;;;;;;;;;;;;;;;-144.19;100.00;76315.47;5019309;28;19925;-82
2022/03/31 12:08:31;;;;;;;;;;;;;;;-144.19;100.00;76319.41;5035497;28;19931;-84
2022/03/31 12:10:59;;;;;;;;;;;;;;;-144.19;100.00;76315.47;5069020;23;19931;-82
2022/03/31 12:13:26;;;;;;;;;;;;;;;-144.19;100.00;76303.66;5054148;28;19925;-83
2022/03/31 12:16:03;;;;;;;;;;;;;;;-144.19;100.00;76307.59;5063740;28;19996;-82
2022/03/31 12:18:35;;;;;;;;;;;;;;;-144.19;100.00;76309.56;5063263;28;19948;-83
2022/03/31 12:21:03;;;;;;;;;;;;;;;-144.19;100.00;76283.97;5057127;28;19925;-82
2022/03/31 12:23:30;;;;;;;;;;;;;;;-144.19;100.00;76272.16;5042914;28;19940;-83
2022/03/31 12:25:56;;;;;;;;;;;;;;;-144.19;100.00;76248.53;5042338;28;19925;-84
2022/03/31 12:28:23;;;;;;;;;;;;;;;-144.19;100.00;76240.66;5044111;28;19977;-82
2022/03/31 12:30:54;;;;;;;;;;;;;;;-144.19;100.00;76226.88;5044509;28;20482;-85
2022/03/31 12:33:20;;;;;;;;;;;;;;;-144.19;100.00;76240.66;5043644;28;20024;-81
2022/03/31 12:35:50;;;;;;;;;;;;;;;-144.19;100.00;76236.72;5042477;28;19925;-83